createdAt,value
2017-09-21T00:01:56.609Z,16.63
2017-09-21T00:04:24.168Z,16.70
2017-09-21T00:06:51.852Z,15.70
2017-09-21T00:09:19.452Z,15.90
2017-09-21T00:11:47.152Z,17.53
2017-09-21T00:14:14.798Z,16.37
2017-09-21T00:16:42.391Z,16.70
2017-09-21T00:19:09.969Z,15.60
2017-09-21T00:21:37.945Z,16.33
2017-09-21T00:24:05.510Z,16.30
2017-09-21T00:26:33.093Z,16.93
2017-09-21T00:29:00.659Z,16.27
2017-09-21T00:31:28.358Z,17.27
2017-09-21T00:33:55.925Z,16.70
2017-09-21T00:36:23.553Z,15.67
2017-09-21T00:38:51.153Z,16.30
2017-09-21T00:41:18.759Z,16.57
2017-09-21T00:43:46.656Z,15.50
2017-09-21T00:46:14.266Z,16.83
2017-09-21T00:48:43.004Z,16.30
2017-09-21T00:51:10.584Z,16.20
2017-09-21T00:53:38.147Z,16.73
2017-09-21T00:56:05.725Z,17.10
2017-09-21T00:58:33.304Z,15.57
2017-09-21T01:01:00.955Z,17.00
2017-09-21T01:03:29.973Z,16.30
2017-09-21T01:05:57.819Z,16.50
2017-09-21T01:08:25.531Z,14.80
2017-09-21T01:10:53.175Z,16.10
2017-09-21T01:13:20.757Z,14.90
2017-09-21T01:15:48.314Z,14.70
2017-09-21T01:18:16.242Z,15.20
2017-09-21T01:20:43.821Z,13.83
2017-09-21T01:23:11.482Z,14.47
2017-09-21T01:25:39.026Z,15.33
2017-09-21T01:28:06.902Z,14.20
2017-09-21T01:30:34.456Z,14.97
2017-09-21T01:33:02.024Z,14.40
2017-09-21T01:35:29.614Z,14.43
2017-09-21T01:37:57.170Z,15.00
2017-09-21T01:40:24.774Z,13.30
2017-09-21T01:42:52.340Z,14.40
2017-09-21T01:45:19.940Z,14.53
2017-09-21T01:47:47.502Z,13.80
2017-09-21T01:50:15.413Z,14.80
2017-09-21T01:52:42.961Z,14.30
2017-09-21T01:55:10.514Z,14.17
2017-09-21T01:57:38.092Z,15.60
2017-09-21T02:00:05.775Z,14.20
2017-09-21T02:02:33.354Z,16.03
2017-09-21T02:05:00.917Z,14.50
2017-09-21T02:07:28.490Z,14.63
2017-09-21T02:09:56.064Z,14.00
2017-09-21T02:12:24.176Z,14.50
2017-09-21T02:14:51.735Z,12.83
2017-09-21T02:17:19.314Z,13.83
2017-09-21T02:19:47.077Z,14.23
2017-09-21T02:22:14.657Z,14.60
2017-09-21T02:24:42.276Z,14.70
2017-09-21T02:27:09.841Z,13.80
2017-09-21T02:29:38.016Z,14.30
2017-09-21T02:32:05.590Z,14.90
2017-09-21T02:34:33.444Z,15.10
2017-09-21T02:37:01.009Z,15.60
2017-09-21T02:39:28.605Z,15.37
2017-09-21T02:41:56.194Z,14.93
2017-09-21T02:44:23.775Z,14.80
2017-09-21T02:46:51.357Z,14.33
2017-09-21T02:49:18.910Z,13.87
2017-09-21T02:51:46.501Z,13.53
2017-09-21T02:54:14.270Z,13.00
2017-09-21T02:56:42.197Z,12.87
2017-09-21T02:59:09.756Z,12.83
2017-09-21T03:01:37.350Z,12.83
2017-09-21T03:04:06.400Z,12.33
2017-09-21T03:06:33.981Z,12.50
2017-09-21T03:09:01.559Z,12.60
2017-09-21T03:11:29.127Z,11.73
2017-09-21T03:13:56.715Z,12.30
2017-09-21T03:16:24.284Z,13.30
2017-09-21T03:18:52.179Z,11.83
2017-09-21T03:21:22.956Z,10.80
2017-09-21T03:23:51.799Z,10.30
2017-09-21T03:26:19.370Z,8.87
2017-09-21T03:28:47.071Z,9.70
2017-09-21T03:31:14.654Z,9.77
2017-09-21T03:33:42.212Z,9.53
2017-09-21T03:36:09.791Z,10.07
2017-09-21T03:38:37.397Z,10.67
2017-09-21T03:41:05.407Z,10.23
2017-09-21T03:43:32.975Z,10.27
2017-09-21T03:46:00.738Z,10.27
2017-09-21T03:48:28.293Z,9.93
2017-09-21T03:50:55.915Z,8.93
2017-09-21T03:53:23.519Z,8.00
2017-09-21T03:55:51.065Z,8.00
2017-09-21T03:58:18.669Z,7.67
2017-09-21T04:00:46.238Z,8.27
2017-09-21T04:03:14.678Z,7.43
2017-09-21T04:05:43.852Z,6.83
2017-09-21T04:08:11.391Z,7.63
2017-09-21T04:10:39.349Z,9.17
2017-09-21T04:13:06.922Z,8.30
2017-09-21T04:15:34.508Z,10.37
2017-09-21T04:18:02.052Z,9.77
2017-09-21T04:20:29.616Z,10.40
2017-09-21T04:22:57.177Z,10.70
2017-09-21T04:25:24.772Z,11.50
2017-09-21T04:27:52.345Z,12.80
2017-09-21T04:30:20.339Z,11.90
2017-09-21T04:32:47.919Z,13.23
2017-09-21T04:35:15.493Z,15.00
2017-09-21T04:37:43.757Z,14.63
2017-09-21T04:40:11.350Z,12.67
2017-09-21T04:42:39.092Z,14.20
2017-09-21T04:45:06.751Z,14.73
2017-09-21T04:47:35.274Z,15.10
2017-09-21T04:50:02.813Z,12.70
2017-09-21T04:52:30.817Z,12.40
2017-09-21T04:54:58.387Z,12.90
2017-09-21T04:57:25.955Z,12.57
2017-09-21T04:59:53.551Z,12.40
2017-09-21T05:02:21.116Z,12.20
2017-09-21T05:04:48.689Z,13.17
2017-09-21T05:07:16.284Z,13.57
2017-09-21T05:09:43.864Z,14.00
2017-09-21T05:12:11.428Z,12.60
2017-09-21T05:14:39.085Z,12.93
2017-09-21T05:17:06.649Z,12.27
2017-09-21T05:19:35.412Z,11.40
2017-09-21T05:22:02.993Z,12.27
2017-09-21T05:24:30.551Z,12.00
2017-09-21T05:26:58.676Z,10.70
2017-09-21T05:29:26.251Z,11.13
2017-09-21T05:31:53.832Z,11.80
2017-09-21T05:34:21.396Z,12.27
2017-09-21T05:36:49.076Z,11.47
2017-09-21T05:39:16.641Z,11.03
2017-09-21T05:44:18.046Z,11.03
2017-09-21T05:46:45.944Z,10.27
2017-09-21T05:49:13.510Z,11.20
2017-09-21T05:51:41.067Z,10.23
2017-09-21T05:54:08.642Z,10.10
2017-09-21T05:56:36.229Z,9.83
2017-09-21T05:59:03.794Z,9.50
2017-09-21T06:01:31.358Z,9.73
2017-09-21T06:03:59.275Z,10.10
2017-09-21T06:06:26.841Z,11.33
2017-09-21T06:08:54.446Z,11.20
2017-09-21T06:11:22.058Z,9.60
2017-09-21T06:13:49.628Z,9.70
2017-09-21T06:16:17.224Z,8.93
2017-09-21T06:18:44.824Z,9.40
2017-09-21T06:21:12.432Z,8.70
2017-09-21T06:23:41.012Z,8.37
2017-09-21T06:26:08.537Z,9.20
2017-09-21T06:28:36.079Z,8.90
2017-09-21T06:31:04.090Z,9.07
2017-09-21T06:33:31.666Z,8.70
2017-09-21T06:35:59.233Z,7.73
2017-09-21T06:38:26.828Z,8.50
2017-09-21T06:40:54.368Z,8.80
2017-09-21T06:43:22.044Z,9.37
2017-09-21T06:45:49.650Z,8.90
2017-09-21T06:48:17.326Z,8.70
2017-09-21T06:50:44.900Z,8.20
2017-09-21T06:53:12.485Z,8.60
2017-09-21T06:55:40.032Z,9.40
2017-09-21T06:58:07.592Z,8.60
2017-09-21T07:00:36.121Z,10.00
2017-09-21T07:03:03.665Z,9.07
2017-09-21T07:05:31.246Z,9.23
2017-09-21T07:07:58.805Z,11.20
2017-09-21T07:10:26.399Z,8.43
2017-09-21T07:12:54.565Z,9.10
2017-09-21T07:15:22.600Z,9.67
2017-09-21T07:17:50.751Z,10.40
2017-09-21T07:20:18.309Z,10.60
2017-09-21T07:22:45.878Z,10.23
2017-09-21T07:25:13.610Z,10.10
2017-09-21T07:27:41.219Z,10.07
2017-09-21T07:30:08.791Z,10.70
2017-09-21T07:32:36.397Z,11.60
2017-09-21T07:35:03.982Z,12.93
2017-09-21T07:37:31.857Z,12.93
2017-09-21T07:39:59.429Z,12.20
2017-09-21T07:42:27.301Z,13.10
2017-09-21T07:44:54.867Z,12.50
2017-09-21T07:47:22.442Z,14.33
2017-09-21T07:49:50.017Z,15.00
2017-09-21T07:52:17.598Z,16.63
2017-09-21T07:54:45.180Z,17.60
2017-09-21T07:57:12.745Z,19.57
2017-09-21T07:59:40.724Z,19.70
2017-09-21T08:02:08.363Z,19.43
2017-09-21T08:04:35.936Z,19.87
2017-09-21T08:07:03.539Z,21.00
2017-09-21T08:09:31.101Z,20.17
2017-09-21T08:11:58.686Z,22.27
2017-09-21T08:14:26.299Z,22.03
2017-09-21T08:16:54.246Z,21.30
2017-09-21T08:19:21.963Z,20.50
2017-09-21T08:21:49.532Z,21.87
2017-09-21T08:24:17.125Z,21.17
2017-09-21T08:26:44.689Z,20.57
2017-09-21T08:29:12.277Z,21.73
2017-09-21T08:31:39.867Z,20.23
2017-09-21T08:34:07.494Z,20.27
2017-09-21T08:36:35.194Z,18.07
2017-09-21T08:39:03.065Z,18.03
2017-09-21T08:41:30.625Z,18.93
2017-09-21T08:43:58.186Z,18.03
2017-09-21T08:46:25.759Z,19.13
2017-09-21T08:48:53.321Z,17.83
2017-09-21T08:51:20.927Z,17.50
2017-09-21T08:53:48.487Z,15.10
2017-09-21T08:56:16.093Z,15.63
2017-09-21T08:58:43.673Z,16.30
2017-09-21T09:01:11.343Z,15.03
2017-09-21T09:03:38.884Z,14.43
2017-09-21T09:06:06.788Z,14.20
2017-09-21T09:08:34.349Z,16.80
2017-09-21T09:11:01.913Z,13.27
2017-09-21T09:13:29.524Z,15.23
2017-09-21T09:15:57.092Z,16.10
2017-09-21T09:18:24.893Z,14.80
2017-09-21T09:20:52.435Z,16.97
2017-09-21T09:23:20.026Z,13.50
2017-09-21T09:25:47.644Z,16.17
2017-09-21T09:28:15.639Z,16.17
2017-09-21T09:30:43.338Z,15.97
2017-09-21T09:33:10.956Z,15.80
2017-09-21T09:35:38.546Z,16.73
2017-09-21T09:38:06.147Z,16.00
2017-09-21T09:40:33.715Z,15.90
2017-09-21T09:43:01.292Z,13.50
2017-09-21T09:45:28.880Z,16.00
2017-09-21T09:47:56.479Z,15.13
2017-09-21T09:50:24.514Z,15.17
2017-09-21T09:52:52.135Z,13.87
2017-09-21T09:55:19.719Z,12.00
2017-09-21T09:57:47.308Z,12.10
2017-09-21T10:00:14.899Z,12.00
2017-09-21T10:02:42.512Z,11.10
2017-09-21T10:05:10.109Z,11.80
2017-09-21T10:07:37.747Z,12.70
2017-09-21T10:10:05.314Z,12.23
2017-09-21T10:12:32.926Z,13.17
2017-09-21T10:15:00.552Z,11.57
2017-09-21T10:17:28.489Z,13.00
2017-09-21T10:19:56.086Z,11.50
2017-09-21T10:22:23.650Z,11.03
2017-09-21T10:24:51.233Z,10.33
2017-09-21T10:27:18.787Z,12.67
2017-09-21T10:29:46.393Z,11.77
2017-09-21T10:32:13.972Z,12.80
2017-09-21T10:34:41.545Z,11.60
2017-09-21T10:37:09.104Z,11.00
2017-09-21T10:39:37.048Z,9.43
2017-09-21T10:42:04.636Z,10.10
2017-09-21T10:44:32.221Z,10.03
2017-09-21T10:46:59.882Z,10.43
2017-09-21T10:49:27.449Z,11.40
2017-09-21T10:51:55.729Z,10.53
2017-09-21T10:54:23.288Z,11.50
2017-09-21T10:56:50.882Z,10.43
2017-09-21T10:59:18.454Z,10.97
2017-09-21T11:01:46.411Z,10.17
2017-09-21T11:04:13.971Z,9.83
2017-09-21T11:06:41.561Z,8.97
2017-09-21T11:09:09.173Z,8.87
2017-09-21T11:11:36.735Z,7.50
2017-09-21T11:14:04.318Z,8.30
2017-09-21T11:16:31.900Z,7.63
2017-09-21T11:18:59.455Z,7.17
2017-09-21T11:21:28.192Z,8.13
2017-09-21T11:23:56.516Z,6.90
2017-09-21T11:26:24.189Z,7.47
2017-09-21T11:28:51.767Z,8.30
2017-09-21T11:31:19.368Z,8.33
2017-09-21T11:33:46.938Z,9.23
2017-09-21T11:36:15.643Z,9.60
2017-09-21T11:38:43.233Z,10.10
2017-09-21T11:41:10.821Z,9.37
2017-09-21T11:43:39.507Z,9.97
2017-09-21T11:46:07.166Z,9.63
2017-09-21T11:48:34.764Z,10.70
2017-09-21T11:51:02.635Z,8.83
2017-09-21T11:53:30.217Z,9.23
2017-09-21T11:55:57.791Z,9.70
2017-09-21T11:58:25.410Z,9.17
2017-09-21T12:00:52.985Z,9.10
2017-09-21T12:03:20.589Z,9.07
2017-09-21T12:05:49.027Z,8.50
2017-09-21T12:08:16.635Z,8.63
2017-09-21T12:10:44.213Z,8.50
2017-09-21T12:13:11.821Z,8.03
2017-09-21T12:15:39.421Z,8.30
2017-09-21T12:18:07.024Z,7.67
2017-09-21T12:20:34.626Z,8.30
2017-09-21T12:23:02.188Z,7.63
2017-09-21T12:25:30.912Z,7.73
2017-09-21T12:27:58.450Z,7.63
2017-09-21T12:30:26.069Z,7.13
2017-09-21T12:32:53.647Z,7.20
2017-09-21T12:35:21.218Z,7.00
2017-09-21T12:37:48.776Z,6.40
2017-09-21T12:40:16.687Z,7.00
2017-09-21T12:42:44.247Z,7.30
2017-09-21T12:45:12.542Z,7.30
2017-09-21T12:47:40.134Z,7.10
2017-09-21T12:50:07.688Z,7.30
2017-09-21T12:52:35.784Z,7.47
2017-09-21T12:55:03.345Z,8.00
2017-09-21T12:57:33.764Z,8.60
2017-09-21T13:00:01.341Z,9.30
2017-09-21T13:02:28.916Z,7.93
2017-09-21T13:04:56.582Z,9.33
2017-09-21T13:07:24.121Z,8.50
2017-09-21T13:09:51.691Z,9.73
2017-09-21T13:12:19.418Z,9.67
2017-09-21T13:14:47.018Z,10.60
2017-09-21T13:17:14.571Z,10.77
2017-09-21T13:19:42.663Z,11.77
2017-09-21T13:22:10.241Z,12.40
2017-09-21T13:24:39.130Z,12.00
2017-09-21T13:27:07.778Z,12.50
2017-09-21T13:29:35.369Z,12.27
2017-09-21T13:32:02.969Z,11.80
2017-09-21T13:34:30.544Z,12.10
2017-09-21T13:36:58.120Z,11.93
2017-09-21T13:39:25.834Z,11.80
2017-09-21T13:41:53.676Z,11.47
2017-09-21T13:44:21.568Z,10.23
2017-09-21T13:46:49.145Z,11.23
2017-09-21T13:49:16.746Z,9.33
2017-09-21T13:51:44.337Z,8.70
2017-09-21T13:54:11.952Z,10.27
2017-09-21T13:56:39.679Z,9.33
2017-09-21T13:59:07.297Z,9.60
2017-09-21T14:01:34.871Z,11.03
2017-09-21T14:04:02.700Z,12.00
2017-09-21T14:06:30.268Z,10.90
2017-09-21T14:08:57.827Z,11.50
2017-09-21T14:11:25.415Z,11.57
2017-09-21T14:13:53.011Z,10.50
2017-09-21T14:16:20.597Z,9.27
2017-09-21T14:18:48.220Z,10.10
2017-09-21T14:21:15.800Z,10.13
2017-09-21T14:23:43.521Z,9.50
2017-09-21T14:26:11.120Z,10.17
2017-09-21T14:28:38.694Z,9.50
2017-09-21T14:31:06.638Z,8.40
2017-09-21T14:33:34.222Z,8.13
2017-09-21T14:36:01.794Z,8.47
2017-09-21T14:38:29.373Z,7.10
2017-09-21T14:40:56.933Z,6.80
2017-09-21T14:43:24.526Z,6.23
2017-09-21T14:45:52.063Z,6.40
2017-09-21T14:48:19.666Z,5.97
2017-09-21T14:50:47.244Z,6.23
2017-09-21T14:53:15.185Z,5.80
2017-09-21T14:55:42.734Z,9.70
2017-09-21T14:58:10.300Z,8.87
2017-09-21T15:00:37.885Z,8.30
2017-09-21T15:03:05.442Z,7.40
2017-09-21T15:05:33.013Z,6.77
2017-09-21T15:08:00.760Z,7.90
2017-09-21T15:10:28.330Z,9.10
2017-09-21T15:12:55.879Z,10.03
2017-09-21T15:15:23.849Z,10.03
2017-09-21T15:17:51.419Z,8.63
2017-09-21T15:20:19.010Z,8.60
2017-09-21T15:22:46.613Z,8.10
2017-09-21T15:25:14.159Z,8.33
2017-09-21T15:27:41.938Z,7.90
2017-09-21T15:30:09.717Z,9.17
2017-09-21T15:32:37.356Z,9.70
2017-09-21T15:35:05.036Z,10.60
2017-09-21T15:37:33.005Z,15.10
2017-09-21T15:40:00.594Z,12.93
2017-09-21T15:42:28.183Z,16.90
2017-09-21T15:44:55.816Z,14.47
2017-09-21T15:47:23.385Z,15.90
2017-09-21T15:49:51.138Z,17.10
2017-09-21T15:52:18.819Z,11.87
2017-09-21T15:54:46.759Z,10.50
2017-09-21T15:57:14.334Z,12.10
2017-09-21T15:59:41.903Z,15.20
2017-09-21T16:02:09.628Z,11.87
2017-09-21T16:04:37.210Z,12.47
2017-09-21T16:07:04.773Z,12.53
2017-09-21T16:09:32.316Z,12.70
2017-09-21T16:12:00.290Z,12.30
2017-09-21T16:14:27.893Z,9.73
2017-09-21T16:16:55.475Z,9.07
2017-09-21T16:19:23.417Z,10.30
2017-09-21T16:21:51.173Z,9.73
2017-09-21T16:24:18.774Z,9.77
2017-09-21T16:26:46.374Z,10.23
2017-09-21T16:29:14.963Z,11.23
2017-09-21T16:31:43.930Z,11.13
2017-09-21T16:34:12.317Z,10.50
2017-09-21T16:36:40.379Z,9.10
2017-09-21T16:39:08.166Z,8.80
2017-09-21T16:41:36.301Z,11.10
2017-09-21T16:44:07.175Z,10.27
2017-09-21T16:46:34.838Z,10.20
2017-09-21T16:49:02.459Z,9.77
2017-09-21T16:51:30.075Z,8.90
2017-09-21T16:53:57.684Z,9.70
2017-09-21T16:56:25.696Z,10.13
2017-09-21T16:58:53.289Z,9.83
2017-09-21T17:01:20.904Z,10.40
2017-09-21T17:03:48.485Z,10.20
2017-09-21T17:06:16.021Z,9.23
2017-09-21T17:08:43.783Z,10.90
2017-09-21T17:11:11.345Z,9.70
2017-09-21T17:13:38.948Z,9.53
2017-09-21T17:16:06.522Z,10.30
2017-09-21T17:18:34.522Z,10.63
2017-09-21T17:21:02.117Z,10.47
2017-09-21T17:23:29.702Z,9.33
2017-09-21T17:25:57.325Z,10.00
2017-09-21T17:28:24.905Z,9.67
2017-09-21T17:30:52.480Z,9.87
2017-09-21T17:33:20.063Z,10.03
2017-09-21T17:35:47.664Z,11.10
2017-09-21T17:38:15.241Z,12.70
2017-09-21T17:40:44.123Z,17.73
2017-09-21T17:43:11.692Z,16.40
2017-09-21T17:45:39.219Z,18.40
2017-09-21T17:48:06.788Z,18.27
2017-09-21T17:50:34.348Z,18.00
2017-09-21T17:53:01.961Z,17.80
2017-09-21T17:55:29.521Z,20.30
2017-09-21T17:57:57.138Z,21.17
2017-09-21T18:00:24.734Z,18.57
2017-09-21T18:02:52.327Z,15.70
2017-09-21T18:05:19.960Z,13.93
2017-09-21T18:07:47.533Z,14.03
2017-09-21T18:10:15.121Z,13.97
2017-09-21T18:12:42.756Z,13.27
2017-09-21T18:15:10.379Z,13.07
2017-09-21T18:17:38.008Z,14.20
2017-09-21T18:20:06.000Z,13.63
2017-09-21T18:22:34.384Z,14.63
2017-09-21T18:25:01.953Z,14.70
2017-09-21T18:27:31.270Z,14.20
2017-09-21T18:29:58.859Z,14.70
2017-09-21T18:32:26.472Z,14.47
2017-09-21T18:34:54.062Z,12.77
2017-09-21T18:37:21.660Z,14.27
2017-09-21T18:39:49.280Z,13.93
2017-09-21T18:42:17.977Z,12.53
2017-09-21T18:44:45.696Z,14.13
2017-09-21T18:47:13.767Z,13.87
2017-09-21T18:49:41.368Z,14.30
2017-09-21T18:52:09.020Z,14.90
2017-09-21T18:54:36.642Z,15.00
2017-09-21T18:57:04.272Z,14.60
2017-09-21T18:59:31.904Z,14.63
2017-09-21T19:02:00.149Z,14.60
2017-09-21T19:04:27.772Z,14.17
2017-09-21T19:06:55.444Z,13.90
2017-09-21T19:09:24.167Z,14.17
2017-09-21T19:11:51.759Z,15.93
2017-09-21T19:14:19.361Z,14.80
2017-09-21T19:16:46.955Z,13.13
2017-09-21T19:19:14.911Z,14.30
2017-09-21T19:21:42.759Z,14.83
2017-09-21T19:24:10.949Z,16.60
2017-09-21T19:26:38.576Z,15.63
2017-09-21T19:29:06.275Z,14.33
2017-09-21T19:31:34.165Z,14.57
2017-09-21T19:34:01.938Z,15.30
2017-09-21T19:36:29.717Z,13.07
2017-09-21T19:38:57.344Z,13.27
2017-09-21T19:41:24.981Z,13.70
2017-09-21T19:43:52.594Z,15.27
2017-09-21T19:46:20.542Z,14.40
2017-09-21T19:48:48.314Z,13.90
2017-09-21T19:51:15.898Z,12.10
2017-09-21T19:53:43.491Z,13.37
2017-09-21T19:56:11.074Z,14.00
2017-09-21T19:58:39.052Z,12.60
2017-09-21T20:01:06.617Z,13.87
2017-09-21T20:03:34.208Z,13.30
2017-09-21T20:06:03.358Z,12.83
2017-09-21T20:08:31.055Z,12.90
2017-09-21T20:10:58.785Z,12.50
2017-09-21T20:13:26.366Z,13.17
2017-09-21T20:15:54.269Z,12.00
2017-09-21T20:18:21.832Z,13.17
2017-09-21T20:20:49.783Z,12.70
2017-09-21T20:23:17.763Z,12.47
2017-09-21T20:25:45.356Z,11.87
2017-09-21T20:28:12.951Z,12.73
2017-09-21T20:30:40.919Z,11.70
2017-09-21T20:33:09.646Z,12.83
2017-09-21T20:35:37.352Z,12.50
2017-09-21T20:38:05.706Z,11.37
2017-09-21T20:40:33.340Z,11.80
2017-09-21T20:43:00.922Z,10.60
2017-09-21T20:45:28.651Z,11.77
2017-09-21T20:47:56.740Z,11.03
2017-09-21T20:50:24.321Z,11.10
2017-09-21T20:52:51.886Z,11.30
2017-09-21T20:55:19.812Z,11.70
2017-09-21T20:57:47.389Z,11.00
2017-09-21T21:00:15.550Z,12.00
2017-09-21T21:02:43.491Z,11.37
2017-09-21T21:05:11.053Z,10.60
2017-09-21T21:07:38.614Z,11.60
2017-09-21T21:10:06.582Z,11.57
2017-09-21T21:12:34.162Z,11.60
2017-09-21T21:15:01.741Z,11.43
2017-09-21T21:17:29.305Z,11.13
2017-09-21T21:19:56.882Z,11.30
2017-09-21T21:22:24.776Z,12.00
2017-09-21T21:24:52.359Z,11.40
2017-09-21T21:27:19.942Z,10.80
2017-09-21T21:29:47.880Z,10.93
2017-09-21T21:32:15.457Z,10.50
2017-09-21T21:34:43.023Z,10.87
2017-09-21T21:37:10.871Z,12.13
2017-09-21T21:39:38.437Z,11.00
2017-09-21T21:42:05.997Z,11.80
2017-09-21T21:44:33.582Z,11.17
2017-09-21T21:47:01.172Z,11.73
2017-09-21T21:49:28.773Z,12.00
2017-09-21T21:51:56.398Z,11.17
2017-09-21T21:54:24.275Z,11.40
2017-09-21T21:56:51.855Z,11.23
2017-09-21T21:59:19.418Z,10.47
2017-09-21T22:01:47.185Z,12.20
2017-09-21T22:04:14.749Z,11.67
2017-09-21T22:06:42.678Z,12.63
2017-09-21T22:09:10.258Z,11.77
2017-09-21T22:11:37.818Z,12.00
2017-09-21T22:14:05.699Z,11.53
2017-09-21T22:16:33.262Z,10.70
2017-09-21T22:19:00.845Z,9.53
2017-09-21T22:21:28.697Z,11.37
2017-09-21T22:23:56.269Z,11.23
2017-09-21T22:26:23.846Z,10.33
2017-09-21T22:28:51.703Z,11.70
2017-09-21T22:31:19.289Z,10.40
2017-09-21T22:33:46.846Z,11.77
2017-09-21T22:36:14.444Z,11.60
2017-09-21T22:38:42.049Z,11.77
2017-09-21T22:41:09.911Z,11.70
2017-09-21T22:43:37.470Z,11.03
2017-09-21T22:46:05.231Z,11.80
2017-09-21T22:48:32.814Z,11.13
2017-09-21T22:51:00.401Z,11.77
2017-09-21T22:53:28.354Z,12.30
2017-09-21T22:55:55.911Z,10.70
2017-09-21T22:58:23.465Z,11.53
2017-09-21T23:00:51.355Z,12.30
2017-09-21T23:03:18.931Z,11.67
2017-09-21T23:05:46.509Z,11.37
2017-09-21T23:08:14.088Z,11.20
2017-09-21T23:10:41.648Z,11.93
2017-09-21T23:13:10.965Z,10.90
2017-09-21T23:15:38.700Z,13.07
2017-09-21T23:18:06.271Z,10.87
2017-09-21T23:20:34.135Z,10.07
2017-09-21T23:23:01.711Z,9.93
2017-09-21T23:25:29.435Z,10.13
2017-09-21T23:27:57.298Z,10.17
2017-09-21T23:30:24.858Z,11.13
2017-09-21T23:32:52.424Z,10.80
2017-09-21T23:35:20.001Z,10.70
2017-09-21T23:37:47.571Z,9.83
2017-09-21T23:40:15.467Z,11.33
2017-09-21T23:42:43.007Z,10.73
2017-09-21T23:45:10.574Z,10.73
2017-09-21T23:47:38.505Z,10.10
2017-09-21T23:50:06.071Z,10.67
2017-09-21T23:52:33.647Z,11.40
2017-09-21T23:55:01.583Z,11.80
2017-09-21T23:57:29.151Z,11.30
2017-09-21T23:59:56.709Z,10.93
